US-0231 weather

North Michigan Hospitals Inc Heliport
Petoskey, Michigan, United States

Public forecast

Using degrees Fahrenheit for public forecast. Weather courtesy of forecast.io.

Closest aviation weather report (METAR) to North Michigan Hospitals Inc Heliport

Closest report is Harbor Springs Airport, 5.8 nm (10.7 km) NNE. Retrieved 2019/10/19 07:35 UTC (37 minutes ago):

KMGN 190735Z AUTO 07003KT 10SM CLR 03/02 A2995 RMK AO2 T00370026

Closest aviation forecast (TAF) to North Michigan Hospitals Inc Heliport

Closest forecast is Pellston Regional Airport of Emmet County Airport, 15.8 nm (29.2 km) NNE. Retrieved 2019/10/19 06:22 UTC (2 hours ago):

TAF KPLN 190520Z 1906/2006 16005KT P6SM FEW250 FM200100 15005KT P6SM BKN200 FM200300 15005KT P6SM SCT070 BKN100